Last 24 Hours

Pinyon

10 Minute Data | America/Los_Angeles
as of 5/4/26 2:33 PM PDT
Date & Time Temp (°F) Dew Pt (°F) RH (%) Wind Spd (mph) Wind Dir (°) Wind Gust (mph) Wind Gst Dir (°) Daily Max Temp (°F) Daily Min Temp (°F)
5/4/26 - 1430 52.5 35.7 53 27.4 NNW | 337 38.5 NW | 313 54.4 42.6
5/4/26 - 1420 52.5 36.1 53 25.8 NNW | 336 37.5 NW | 324 54.4 42.6
5/4/26 - 1410 52.8 35.7 52 26.4 NNW | 335 37.8 N | 1 53.7 42.6
5/4/26 - 1400 52.8 35.2 51 26.3 NNW | 337 39.3 NNW | 337 53.7 42.6
5/4/26 - 1350 52.6 35.2 51 25.3 NNW | 332 38.2 NNW | 335 53.7 42.6
5/4/26 - 1340 51.5 35.3 54 25.2 NNW | 331 34.9 NNW | 328 52.4 42.6
5/4/26 - 1330 51.4 35.9 55 24.8 NNW | 333 36.8 NNW | 334 52.4 42.6
5/4/26 - 1320 50.9 35.4 55 25.8 NNW | 340 38.9 NNW | 336 51.3 42.6
5/4/26 - 1310 50.6 35.5 56 25.1 NNW | 331 37.3 NW | 320 51.0 42.6
5/4/26 - 1300 50.2 35.9 58 26.6 NNW | 330 36.5 NW | 320 50.6 42.6
5/4/26 - 1250 50.2 36.0 58 26.6 NNW | 334 39.4 NNW | 336 50.6 42.6
5/4/26 - 1240 49.9 35.9 58 26.6 NNW | 339 38.5 NNW | 343 50.4 42.6
5/4/26 - 1230 49.7 35.4 58 26.9 NNW | 334 37.7 NNW | 339 50.4 42.6
5/4/26 - 1220 49.4 35.8 59 25.1 NNW | 328 35.7 NW | 326 50.4 42.6
5/4/26 - 1210 49.5 36.3 60 25.0 NNW | 333 36.4 NNW | 341 50.4 42.6
5/4/26 - 1200 49.7 36.3 60 23.8 NNW | 331 34.1 N | 351 50.4 42.6
5/4/26 - 1150 49.7 35.7 58 22.6 NNW | 333 33.1 NW | 316 50.2 42.6
5/4/26 - 1140 49.2 35.5 59 23.4 NNW | 335 36.4 NNW | 337 49.7 42.6
5/4/26 - 1130 48.6 35.5 60 25.5 NW | 326 36.0 NNW | 334 48.9 42.6
5/4/26 - 1120 48.3 35.5 61 25.4 NNW | 330 35.2 NNW | 338 48.6 42.6
5/4/26 - 1110 48.2 35.8 62 22.9 NNW | 335 33.2 NNW | 330 48.6 42.6
5/4/26 - 1100 47.6 35.8 63 22.2 NNW | 332 32.1 NNW | 342 47.8 42.6
5/4/26 - 1050 47.3 36.0 65 23.3 NNW | 329 34.9 NNW | 333 47.6 42.6
5/4/26 - 1040 47.2 36.5 66 21.1 NNW | 331 31.2 NNW | 332 47.6 42.6
5/4/26 - 1030 46.8 36.7 68 20.7 NW | 326 31.0 NW | 319 47.1 42.6
5/4/26 - 1020 46.3 36.4 68 20.1 NW | 325 30.5 NW | 318 46.6 42.6
5/4/26 - 1010 46.2 35.7 67 23.2 NNW | 329 32.3 NW | 325 46.3 42.6
5/4/26 - 1000 45.9 35.4 66 22.2 NW | 325 32.7 NW | 320 46.2 42.6
5/4/26 - 0950 45.3 35.5 68 22.6 NNW | 327 33.5 NNW | 345 45.6 42.6
5/4/26 - 0940 44.9 35.4 69 22.8 NNW | 327 32.3 NNW | 328 45.1 42.6
5/4/26 - 0930 44.5 35.4 70 22.0 NNW | 328 31.4 NNW | 342 44.7 42.6
5/4/26 - 0920 44.3 35.2 70 21.9 NNW | 328 33.8 NNW | 332 44.5 42.6
5/4/26 - 0910 44.1 35.8 72 22.0 NNW | 330 30.3 NW | 318 44.3 42.6
5/4/26 - 0900 44.1 36.2 73 21.4 NNW | 329 30.8 NNW | 332 44.3 42.6
5/4/26 - 0850 44.1 35.9 73 21.3 NNW | 329 31.9 NNW | 331 44.3 42.6
5/4/26 - 0840 44.2 35.3 71 20.8 NNW | 328 29.2 NNW | 332 44.3 42.6
5/4/26 - 0830 44.1 35.6 72 19.3 NW | 324 28.7 NW | 324 44.3 42.6
5/4/26 - 0820 44.1 35.7 72 21.0 NW | 322 29.4 NNW | 327 44.1 42.6
5/4/26 - 0810 44.0 35.5 72 18.4 NW | 323 26.2 NW | 322 44.1 42.6
5/4/26 - 0800 43.9 35.7 73 19.2 NW | 323 25.1 NW | 322 44.1 42.6
5/4/26 - 0750 43.7 35.6 73 19.1 NW | 323 27.0 NW | 313 44.1 42.6
5/4/26 - 0740 43.5 35.7 74 19.0 NNW | 327 27.6 NNW | 333 44.1 42.6
5/4/26 - 0730 43.3 36.0 75 18.0 NNW | 328 25.4 NNW | 331 44.1 42.6
5/4/26 - 0720 43.1 36.5 77 17.8 NNW | 331 26.4 NW | 321 44.1 42.6
5/4/26 - 0710 43.1 36.7 78 17.8 NNW | 331 27.2 NNW | 337 44.1 42.6
5/4/26 - 0700 43.2 36.6 77 18.3 NNW | 330 26.3 NNW | 341 44.1 42.6
5/4/26 - 0650 43.3 36.1 75 19.7 NW | 326 28.3 NW | 324 44.1 42.6
5/4/26 - 0640 43.2 35.9 75 19.8 NNW | 330 26.4 NNW | 330 44.1 42.6
5/4/26 - 0630 43.0 36.1 76 19.5 NNW | 331 30.8 NNW | 335 44.1 42.6
5/4/26 - 0620 42.9 36.1 77 19.5 NNW | 332 28.4 NNW | 329 44.1 42.6
5/4/26 - 0610 43.0 36.0 76 20.4 NNW | 332 30.3 NNW | 341 44.1 42.6
5/4/26 - 0600 42.9 36.1 77 20.0 NNW | 332 28.4 NNW | 337 44.1 42.6
5/4/26 - 0550 42.7 36.4 78 19.0 NNW | 330 30.9 NNW | 330 44.1 42.6
5/4/26 - 0540 42.6 36.6 79 19.2 NNW | 332 27.4 NNW | 329 44.1 42.6
5/4/26 - 0530 42.7 36.2 78 20.2 NNW | 330 29.1 NNW | 332 44.1 42.6
5/4/26 - 0520 42.8 35.9 76 19.6 NNW | 331 28.7 NNW | 343 44.1 42.6
5/4/26 - 0510 42.7 35.6 76 17.7 NNW | 333 26.4 NNW | 332 44.1 42.6
5/4/26 - 0500 42.8 35.3 75 19.1 NNW | 337 28.4 NNW | 343 44.1 42.7
5/4/26 - 0450 42.9 35.1 74 21.0 NNW | 337 30.8 NNW | 344 44.1 42.7
5/4/26 - 0440 42.8 35.1 74 20.7 NNW | 336 32.1 NNW | 342 44.1 42.7
5/4/26 - 0430 43.0 35.1 73 20.0 NNW | 337 29.5 N | 349 44.1 42.8
5/4/26 - 0420 43.1 35.2 73 19.3 NNW | 335 27.7 NW | 322 44.1 43.0
5/4/26 - 0410 43.2 35.4 74 19.1 NNW | 334 30.1 NNW | 334 44.1 43.1
5/4/26 - 0400 43.3 35.4 73 18.0 NNW | 335 26.1 NW | 317 44.1 43.3
5/4/26 - 0350 43.4 35.4 73 18.4 NNW | 333 29.6 NNW | 339 44.1 43.3
5/4/26 - 0340 43.6 35.4 73 20.8 NNW | 332 31.4 NNW | 340 44.1 43.4
5/4/26 - 0330 43.5 35.8 74 20.2 NNW | 334 32.4 NNW | 339 44.1 43.4
5/4/26 - 0320 43.6 35.8 74 19.7 NNW | 336 29.7 NNW | 340 44.1 43.4
5/4/26 - 0310 43.7 35.9 74 19.1 NNW | 333 28.8 NNW | 341 44.1 43.4
5/4/26 - 0300 43.6 36.0 74 18.8 NNW | 332 31.5 NNW | 330 44.1 43.4
5/4/26 - 0250 43.7 36.0 74 18.0 NNW | 331 25.1 NNW | 338 44.1 43.4
5/4/26 - 0240 43.7 36.1 74 18.6 NNW | 330 28.6 NNW | 338 44.1 43.4
5/4/26 - 0230 43.8 36.1 74 18.8 NNW | 334 27.3 NNW | 333 44.1 43.4
5/4/26 - 0220 44.0 36.3 74 20.5 NNW | 334 28.9 NNW | 347 44.1 43.4
5/4/26 - 0210 44.1 36.2 74 18.8 NNW | 335 28.0 NNW | 337 44.1 43.4
5/4/26 - 0200 44.0 36.5 75 18.8 NNW | 341 28.4 NNW | 338 44.1 43.4
5/4/26 - 0150 43.8 37.1 77 19.5 NNW | 334 29.9 NNW | 331 43.8 43.4
5/4/26 - 0140 43.6 37.5 79 23.9 NNW | 328 33.2 NW | 321 43.8 43.4
5/4/26 - 0130 43.5 37.4 79 24.5 NW | 326 35.7 NW | 326 43.8 43.4
5/4/26 - 0120 43.6 37.1 78 24.3 NNW | 328 35.6 NNW | 330 43.8 43.5
5/4/26 - 0110 43.7 36.8 76 29.3 NNW | 330 40.9 NNW | 338 43.8 43.5
5/4/26 - 0100 43.4 36.5 76 29.4 NNW | 334 39.5 NNW | 334 74.4 43.2
5/4/26 - 0050 43.3 36.2 76 29.3 NNW | 329 42.6 NNW | 328 74.4 43.2
5/4/26 - 0040 43.3 35.9 75 31.5 NNW | 332 40.1 NNW | 335 74.4 43.2
5/4/26 - 0030 43.4 36.5 77 31.6 NNW | 331 43.3 NNW | 336 74.4 43.3
5/4/26 - 0020 43.5 37.1 78 30.0 NNW | 336 41.6 NNW | 345 74.4 43.4
5/4/26 - 0010 43.7 37.2 78 28.5 NNW | 336 39.9 NNW | 341 74.4 43.6
5/4/26 - 0000 43.8 37.5 78 27.6 NNW | 336 38.3 NNW | 335 74.4 43.8
5/3/26 - 2350 44.0 37.2 77 26.1 NNW | 333 36.8 NNW | 329 74.4 43.9
5/3/26 - 2340 44.0 37.2 77 25.9 NW | 324 37.9 NW | 316 74.4 43.9
5/3/26 - 2330 44.1 37.3 77 24.5 NNW | 327 34.6 NW | 318 74.4 44.0
5/3/26 - 2320 44.3 37.8 78 23.6 NNW | 330 33.2 NW | 326 74.4 44.2
5/3/26 - 2310 44.5 38.5 79 24.8 NNW | 329 33.9 NW | 317 74.4 44.4
5/3/26 - 2300 44.5 38.8 80 23.3 NW | 325 33.5 NNW | 327 74.4 44.5
5/3/26 - 2250 44.6 39.2 81 19.8 NW | 320 34.0 NNW | 328 74.4 44.6
5/3/26 - 2240 44.8 39.4 81 16.0 NW | 319 26.4 NNW | 332 74.4 44.7
5/3/26 - 2230 44.8 39.8 82 17.4 NNW | 327 26.3 NW | 324 74.4 44.7
5/3/26 - 2220 45.0 40.1 83 16.8 NNW | 327 27.5 NW | 310 74.4 44.8
5/3/26 - 2210 45.1 40.1 82 15.9 NNW | 327 25.6 NNW | 335 74.4 45.1
5/3/26 - 2200 45.1 40.3 83 18.5 NW | 324 26.0 NNW | 334 74.4 45.1
5/3/26 - 2150 45.2 40.4 83 18.2 NW | 321 30.0 NW | 316 74.4 45.2
5/3/26 - 2140 45.3 40.5 83 20.2 NW | 322 30.8 NW | 320 74.4 45.2
5/3/26 - 2130 45.3 40.8 84 20.4 NW | 325 34.9 NNW | 330 74.4 45.2
5/3/26 - 2120 45.2 40.8 84 20.5 NNW | 330 32.2 NNW | 334 74.4 45.2
5/3/26 - 2110 45.3 41.3 86 20.0 NNW | 334 31.0 NNW | 342 74.4 45.2
5/3/26 - 2100 45.6 41.6 86 16.9 NNW | 338 27.4 NNW | 338 74.4 45.6
5/3/26 - 2050 46.0 41.6 85 18.8 NNW | 335 27.7 NNW | 331 74.4 45.8
5/3/26 - 2040 46.0 41.8 85 19.2 NNW | 338 27.0 NNW | 340 74.4 45.9
5/3/26 - 2030 46.3 42.0 85 20.8 NNW | 336 29.8 NW | 318 74.4 46.0
5/3/26 - 2020 46.6 42.3 85 22.8 NNW | 334 33.8 NW | 322 74.4 46.5
5/3/26 - 2010 46.8 42.6 85 23.0 NNW | 331 37.6 NNW | 337 74.4 46.7
5/3/26 - 2000 47.3 42.8 84 27.3 NNW | 337 38.0 NNW | 335 74.4 47.1
5/3/26 - 1950 48.0 43.1 83 25.5 NNW | 334 38.3 NNW | 343 74.4 47.6
5/3/26 - 1940 49.5 43.4 79 25.4 NNW | 333 34.9 NW | 326 74.4 48.6
5/3/26 - 1930 51.0 43.7 76 23.6 NNW | 334 33.9 NNW | 330 74.4 50.3
5/3/26 - 1920 52.0 44.1 74 23.0 NNW | 337 33.2 NNW | 342 74.4 51.6
5/3/26 - 1910 52.6 44.4 74 27.0 NNW | 338 39.4 NW | 325 74.4 52.3
5/3/26 - 1900 53.8 44.7 71 26.1 NNW | 336 38.9 NNW | 346 74.4 53.4
5/3/26 - 1850 54.8 44.7 69 24.2 NNW | 333 34.5 NNW | 335 74.4 54.1
5/3/26 - 1840 55.8 45.0 67 22.7 NNW | 335 33.2 NNW | 343 74.4 55.5
5/3/26 - 1830 56.7 44.7 64 23.5 NNW | 333 32.3 NNW | 330 74.4 56.1
5/3/26 - 1820 57.1 44.5 63 23.7 NNW | 335 34.0 NNW | 332 74.4 56.9
5/3/26 - 1810 57.9 44.6 61 23.2 NNW | 339 38.2 NNW | 336 74.4 57.0
5/3/26 - 1800 58.4 44.2 59 23.8 NNW | 345 36.4 NNW | 340 74.4 57.0
5/3/26 - 1750 59.6 44.0 56 16.7 NNW | 343 28.5 NNW | 348 74.4 57.0
5/3/26 - 1740 60.3 43.6 54 18.3 NNW | 343 28.7 NNW | 336 74.4 57.0
5/3/26 - 1730 60.9 43.2 52 18.3 NNW | 346 27.5 NNW | 338 74.4 57.0
5/3/26 - 1720 61.0 43.5 52 16.9 NNW | 344 25.3 NNW | 341 74.4 57.0
5/3/26 - 1710 61.0 43.5 52 18.2 NNW | 340 26.7 NNW | 333 74.4 57.0
5/3/26 - 1700 61.5 43.3 51 18.9 NNW | 336 28.7 NNW | 345 74.4 57.0
5/3/26 - 1650 61.8 43.0 50 21.8 NNW | 331 30.5 NNW | 339 74.4 57.0
5/3/26 - 1640 62.0 42.2 48 21.1 NW | 326 31.0 NW | 319 74.4 57.0
5/3/26 - 1630 61.9 43.6 51 22.7 NNW | 336 33.2 N | 2 74.4 57.0
5/3/26 - 1620 61.9 44.9 54 23.0 NNW | 339 34.4 NNW | 344 74.4 57.0
5/3/26 - 1610 62.5 45.8 54 23.8 NNW | 340 34.4 NNW | 340 74.4 57.0
5/3/26 - 1600 63.2 45.8 53 22.5 NNW | 340 32.7 NNE | 12 74.4 57.0
5/3/26 - 1550 63.6 45.4 51 24.0 NNW | 335 33.0 NNW | 343 74.4 57.0
5/3/26 - 1540 64.9 45.3 49 23.0 NNW | 338 33.9 NNW | 329 74.4 57.0
5/3/26 - 1530 65.9 44.6 46 22.2 NNW | 334 30.8 NNW | 333 74.4 57.0
5/3/26 - 1520 66.2 44.6 45 22.2 NNW | 336 32.0 NNW | 335 74.4 57.0
5/3/26 - 1510 66.6 44.1 44 20.5 NNW | 339 31.8 N | 350 74.4 57.0
5/3/26 - 1500 66.0 44.5 46 21.3 NNW | 340 30.3 NNW | 337 74.4 57.0
5/3/26 - 1450 66.2 44.8 46 20.9 NNW | 338 30.2 NNW | 346 74.4 57.0
5/3/26 - 1440 66.9 45.0 45 21.9 NNW | 340 34.7 N | 349 74.4 57.0
5/3/26 - 1430 68.0 44.3 42 18.6 NNW | 334 27.3 NNW | 329 74.4 57.0
Max 68.0 45.8 86 31.6 - 43.3 - 74.4 57.0
Avg 48.7 38.5 69 22.0 - 32.3 - - -
Min 42.6 35.1 42 15.9 - 25.1 - 43.8 42.6